Henderson, Nebraska
Current Conditions -  °F | °C
As of 2:35 AM on Saturday 29 Nov 2014 (Local Time) from KAUH Reporting Station
Clear Clear  
Wind Chill: 28°   Ceiling: Unl
Heat Index: 36°   Visibility: 10mi
Dew Point: 23°   Wind: 10mph
Humidity: 59%   Direction: 220°SW
Pressure: 29.59"   Gusts: NA
Location:  40.78°N, 97.81°W
Report Text: KAUH 290835Z AUTO 22009KT 10SM CLR 02/M05 A2959 RMK AO2 T00221051
Loading
Personal Weather Stations






























Interactive Weather Map New forecast layout! Learn more

10-Day Weather Forecast

Advertisements
Track Severe Weather on mobile